createdAt,value
2022-08-01T00:01:18.320Z,94.80
2022-08-01T00:04:40.540Z,94.70
2022-08-01T00:08:02.787Z,94.70
2022-08-01T00:11:25.347Z,94.70
2022-08-01T00:14:48.326Z,94.60
2022-08-01T00:18:10.545Z,94.70
2022-08-01T00:21:33.158Z,94.50
2022-08-01T00:24:55.402Z,94.70
2022-08-01T00:28:17.634Z,94.30
2022-08-01T00:31:39.887Z,94.20
2022-08-01T00:35:02.273Z,94.20
2022-08-01T00:38:24.484Z,94.10
2022-08-01T00:41:48.831Z,94.30
2022-08-01T00:45:21.721Z,94.20
2022-08-01T00:48:44.032Z,94.20
2022-08-01T00:52:07.756Z,94.40
2022-08-01T00:55:31.870Z,94.40
2022-08-01T00:58:56.381Z,94.40
2022-08-01T01:02:19.181Z,94.40
2022-08-01T01:06:04.557Z,94.40
2022-08-01T01:09:38.507Z,94.40
2022-08-01T01:13:03.547Z,94.30
2022-08-01T01:16:26.723Z,94.40
2022-08-01T01:19:52.429Z,94.30
2022-08-01T01:23:52.689Z,94.20
2022-08-01T01:27:40.149Z,94.10
2022-08-01T01:31:04.444Z,94.10
2022-08-01T01:34:30.782Z,94.20
2022-08-01T01:37:59.083Z,94.20
2022-08-01T01:41:22.900Z,94.30
2022-08-01T01:44:46.801Z,94.40
2022-08-01T01:48:11.578Z,94.20
2022-08-01T01:51:34.334Z,94.20
2022-08-01T01:54:57.806Z,94.30
2022-08-01T01:58:21.518Z,94.30
2022-08-01T02:02:05.394Z,94.20
2022-08-01T02:05:29.278Z,94.30
2022-08-01T02:08:54.690Z,94.30
2022-08-01T02:12:19.526Z,94.20
2022-08-01T02:15:59.856Z,94.30
2022-08-01T02:19:22.724Z,94.30
2022-08-01T02:22:52.802Z,94.30
2022-08-01T02:26:18.943Z,94.30
2022-08-01T02:29:54.200Z,94.30
2022-08-01T02:33:18.674Z,94.30
2022-08-01T02:36:41.317Z,94.10
2022-08-01T02:40:05.248Z,94.10
2022-08-01T02:43:31.143Z,94.00
2022-08-01T02:47:03.223Z,93.90
2022-08-01T02:50:27.561Z,93.70
2022-08-01T02:53:52.965Z,93.60
2022-08-01T02:57:17.038Z,93.60
2022-08-01T03:00:44.342Z,93.60
2022-08-01T03:04:12.345Z,93.70
2022-08-01T03:07:37.679Z,93.40
2022-08-01T03:11:04.383Z,93.30
2022-08-01T03:14:27.495Z,93.30
2022-08-01T03:17:52.278Z,93.00
2022-08-01T03:21:15.201Z,93.10
2022-08-01T03:24:40.419Z,92.90
2022-08-01T03:28:05.855Z,92.70
2022-08-01T03:31:29.189Z,92.40
2022-08-01T03:34:51.661Z,92.30
2022-08-01T03:38:17.522Z,92.20
2022-08-01T03:41:44.501Z,92.30
2022-08-01T03:45:13.452Z,92.50
2022-08-01T03:48:41.419Z,92.40
2022-08-01T03:52:08.107Z,92.40
2022-08-01T03:55:32.442Z,92.30
2022-08-01T03:58:55.351Z,92.20
2022-08-01T04:02:22.705Z,92.20
2022-08-01T04:05:45.291Z,92.10
2022-08-01T04:09:13.538Z,92.10
2022-08-01T04:12:36.174Z,92.00
2022-08-01T04:15:58.415Z,92.20
2022-08-01T04:19:20.979Z,92.20
2022-08-01T04:22:43.411Z,92.30
2022-08-01T04:26:06.726Z,92.20
2022-08-01T04:29:30.812Z,92.20
2022-08-01T04:32:56.121Z,92.30
2022-08-01T04:36:23.813Z,92.40
2022-08-01T04:39:51.108Z,92.40
2022-08-01T04:43:15.087Z,92.20
2022-08-01T04:46:38.758Z,92.40
2022-08-01T04:50:01.169Z,92.90
2022-08-01T04:53:23.457Z,93.30
2022-08-01T04:56:46.954Z,94.10
2022-08-01T05:00:14.641Z,94.50
2022-08-01T05:03:39.154Z,94.40
2022-08-01T05:07:01.614Z,94.30
2022-08-01T05:10:23.854Z,94.60
2022-08-01T05:13:46.176Z,94.80
2022-08-01T05:17:11.950Z,94.50
2022-08-01T05:20:34.409Z,94.40
2022-08-01T05:23:56.636Z,94.30
2022-08-01T05:27:18.930Z,94.30
2022-08-01T05:30:41.733Z,94.30
2022-08-01T05:34:04.252Z,94.60
2022-08-01T05:37:26.562Z,94.70
2022-08-01T05:40:48.780Z,94.80
2022-08-01T05:44:11.304Z,95.00
2022-08-01T05:47:33.521Z,95.10
2022-08-01T05:50:58.695Z,95.30
2022-08-01T05:54:21.207Z,95.20
2022-08-01T05:57:43.430Z,95.30
2022-08-01T06:01:05.639Z,95.20
2022-08-01T06:04:28.111Z,95.20
2022-08-01T06:07:50.321Z,95.00
2022-08-01T06:11:13.290Z,95.00
2022-08-01T06:14:35.724Z,95.20
2022-08-01T06:17:57.997Z,95.00
2022-08-01T06:21:20.234Z,94.90
2022-08-01T06:24:42.538Z,94.90
2022-08-01T06:28:04.978Z,95.00
2022-08-01T06:31:31.760Z,95.10
2022-08-01T06:34:56.343Z,94.30
2022-08-01T06:38:18.737Z,95.40
2022-08-01T06:41:42.577Z,95.30
2022-08-01T06:45:10.428Z,95.20
2022-08-01T06:48:32.778Z,95.10
2022-08-01T06:51:55.013Z,95.00
2022-08-01T06:55:17.272Z,95.20
2022-08-01T06:58:39.524Z,95.40
2022-08-01T07:02:04.855Z,95.70
2022-08-01T07:05:27.627Z,95.50
2022-08-01T07:08:49.846Z,95.40
2022-08-01T07:12:12.363Z,95.40
2022-08-01T07:15:34.593Z,95.20
2022-08-01T07:18:56.899Z,94.70
2022-08-01T07:22:23.106Z,94.00
2022-08-01T07:25:50.383Z,94.00
2022-08-01T07:29:14.914Z,93.70
2022-08-01T07:32:37.319Z,93.00
2022-08-01T07:35:59.593Z,93.30
2022-08-01T07:39:22.101Z,93.30
2022-08-01T07:42:45.866Z,92.10
2022-08-01T07:46:08.231Z,93.20
2022-08-01T07:49:30.586Z,94.20
2022-08-01T07:52:53.497Z,93.50
2022-08-01T07:56:15.905Z,94.00
2022-08-01T07:59:38.298Z,93.90
2022-08-01T08:03:00.623Z,94.50
2022-08-01T08:06:22.962Z,94.30
2022-08-01T08:09:45.257Z,93.80
2022-08-01T08:13:13.576Z,92.40
2022-08-01T08:16:35.814Z,92.80
2022-08-01T08:19:58.065Z,92.00
2022-08-01T08:23:43.565Z,91.30
2022-08-01T08:27:07.069Z,90.70
2022-08-01T08:30:29.462Z,90.50
2022-08-01T08:33:51.694Z,90.90
2022-08-01T08:37:13.939Z,91.80
2022-08-01T08:40:38.127Z,92.20
2022-08-01T08:44:10.370Z,91.70
2022-08-01T08:47:35.157Z,90.70
2022-08-01T08:51:01.247Z,90.20
2022-08-01T08:54:31.511Z,89.50
2022-08-01T08:57:55.197Z,89.10
2022-08-01T09:01:18.670Z,89.20
2022-08-01T09:04:47.302Z,89.30
2022-08-01T09:08:09.661Z,90.80
2022-08-01T09:11:32.893Z,90.60
2022-08-01T09:14:55.122Z,90.30
2022-08-01T09:18:40.322Z,90.00
2022-08-01T09:22:05.356Z,88.90
2022-08-01T09:25:43.721Z,88.80
2022-08-01T09:29:37.258Z,90.00
2022-08-01T09:33:11.426Z,90.30
2022-08-01T09:36:57.651Z,89.60
2022-08-01T09:40:20.000Z,88.90
2022-08-01T09:43:50.381Z,88.80
2022-08-01T09:47:15.534Z,90.00
2022-08-01T09:50:43.113Z,90.00
2022-08-01T09:54:07.370Z,90.20
2022-08-01T09:57:30.289Z,89.70
2022-08-01T10:01:04.901Z,89.70
2022-08-01T10:04:28.529Z,90.10
2022-08-01T10:08:07.608Z,89.10
2022-08-01T10:11:36.086Z,88.50
2022-08-01T10:14:59.331Z,88.00
2022-08-01T10:18:26.441Z,88.30
2022-08-01T10:21:58.275Z,88.20
2022-08-01T10:25:43.626Z,88.40
2022-08-01T10:29:05.882Z,88.90
2022-08-01T10:32:50.673Z,88.60
2022-08-01T10:36:18.278Z,88.90
2022-08-01T10:39:42.123Z,90.00
2022-08-01T10:43:04.744Z,85.70
2022-08-01T10:46:27.399Z,81.90
2022-08-01T10:49:57.437Z,82.10
2022-08-01T10:53:31.011Z,82.40
2022-08-01T10:56:56.703Z,82.60
2022-08-01T11:00:21.387Z,82.60
2022-08-01T11:03:57.546Z,83.20
2022-08-01T11:07:26.089Z,84.00
2022-08-01T11:11:07.286Z,84.10
2022-08-01T11:14:46.682Z,84.50
2022-08-01T11:18:29.672Z,85.00
2022-08-01T11:22:01.387Z,85.20
2022-08-01T11:26:05.264Z,85.00
2022-08-01T11:29:22.573Z,84.50
2022-08-01T11:33:11.068Z,84.30
2022-08-01T11:36:57.447Z,83.90
2022-08-01T11:40:27.542Z,85.70
2022-08-01T11:44:10.247Z,86.20
2022-08-01T11:47:46.593Z,85.60
2022-08-01T11:51:23.838Z,84.50
2022-08-01T11:54:57.565Z,83.90
2022-08-01T11:58:27.583Z,84.30
2022-08-01T12:01:51.830Z,84.60
2022-08-01T12:05:19.162Z,84.20
2022-08-01T12:08:41.507Z,84.10
2022-08-01T12:12:04.121Z,84.10
2022-08-01T12:15:39.394Z,84.30
2022-08-01T12:19:01.727Z,84.30
2022-08-01T12:22:25.564Z,84.10
2022-08-01T12:25:52.589Z,84.20
2022-08-01T12:29:32.877Z,84.00
2022-08-01T12:32:55.929Z,84.60
2022-08-01T12:36:29.539Z,84.70
2022-08-01T12:39:51.890Z,84.50
2022-08-01T12:43:27.907Z,83.90
2022-08-01T12:46:52.586Z,84.20
2022-08-01T12:50:22.568Z,83.70
2022-08-01T12:53:44.857Z,84.00
2022-08-01T12:57:24.548Z,84.00
2022-08-01T13:00:49.324Z,83.70
2022-08-01T13:04:11.655Z,84.10
2022-08-01T13:07:45.569Z,84.10
2022-08-01T13:11:14.720Z,84.40
2022-08-01T13:14:36.965Z,84.40
2022-08-01T13:18:27.078Z,83.80
2022-08-01T13:21:58.235Z,84.80
2022-08-01T13:25:23.021Z,84.90
2022-08-01T13:28:46.167Z,85.30
2022-08-01T13:32:27.872Z,84.70
2022-08-01T13:35:54.585Z,84.60
2022-08-01T13:39:35.601Z,83.60
2022-08-01T13:42:57.868Z,83.50
2022-08-01T13:46:20.335Z,84.30
2022-08-01T13:49:42.805Z,84.00
2022-08-01T13:53:05.063Z,84.20
2022-08-01T13:56:31.150Z,83.80
2022-08-01T13:59:53.470Z,84.10
2022-08-01T14:03:17.581Z,84.90
2022-08-01T14:06:40.066Z,84.80
2022-08-01T14:10:19.492Z,84.20
2022-08-01T14:13:46.644Z,84.30
2022-08-01T14:17:09.215Z,84.10
2022-08-01T14:20:31.529Z,83.90
2022-08-01T14:23:53.772Z,84.10
2022-08-01T14:27:16.018Z,84.40
2022-08-01T14:30:38.295Z,84.40
2022-08-01T14:34:00.662Z,83.80
2022-08-01T14:37:23.270Z,84.00
2022-08-01T14:40:54.562Z,83.40
2022-08-01T14:44:17.207Z,83.10
2022-08-01T14:47:41.418Z,84.10
2022-08-01T14:51:05.275Z,83.60
2022-08-01T14:54:29.498Z,83.30
2022-08-01T14:57:51.972Z,83.30
2022-08-01T15:01:14.386Z,83.30
2022-08-01T15:04:36.687Z,83.60
2022-08-01T15:07:58.893Z,83.40
2022-08-01T15:11:21.159Z,83.80
2022-08-01T15:14:49.893Z,85.30
2022-08-01T15:18:12.277Z,84.00
2022-08-01T15:21:41.717Z,84.30
2022-08-01T15:25:04.746Z,83.70
2022-08-01T15:28:27.617Z,83.60
2022-08-01T15:31:29.954Z,83.00
2022-08-01T15:34:32.448Z,83.10
2022-08-01T15:37:36.477Z,83.50
2022-08-01T15:40:40.636Z,83.30
2022-08-01T15:43:44.869Z,83.30
2022-08-01T15:46:49.315Z,83.30
2022-08-01T15:49:52.471Z,82.60
2022-08-01T15:52:54.658Z,82.70
2022-08-01T15:55:56.734Z,82.80
2022-08-01T15:59:00.126Z,83.30
2022-08-01T16:02:02.388Z,83.00
2022-08-01T16:05:05.155Z,82.90
2022-08-01T16:08:07.302Z,83.00
2022-08-01T16:11:09.181Z,83.90
2022-08-01T16:14:11.196Z,83.00
2022-08-01T16:17:13.444Z,82.50
2022-08-01T16:20:16.186Z,81.70
2022-08-01T16:23:21.125Z,82.60
2022-08-01T16:26:27.949Z,82.80
2022-08-01T16:29:31.873Z,84.10
2022-08-01T16:32:54.731Z,83.00
2022-08-01T16:36:22.066Z,82.80
2022-08-01T16:39:47.444Z,83.30
2022-08-01T16:43:10.462Z,82.50
2022-08-01T16:46:33.294Z,82.20
2022-08-01T16:49:55.546Z,82.50
2022-08-01T16:53:22.318Z,82.90
2022-08-01T16:56:45.886Z,82.10
2022-08-01T17:00:21.431Z,81.90
2022-08-01T17:03:51.278Z,81.90
2022-08-01T17:07:15.283Z,82.00
2022-08-01T17:10:38.772Z,82.10
2022-08-01T17:14:01.130Z,82.10
2022-08-01T17:17:24.187Z,81.80
2022-08-01T17:20:48.412Z,82.60
2022-08-01T17:24:11.530Z,83.00
2022-08-01T17:27:37.759Z,83.20
2022-08-01T17:31:01.562Z,83.50
2022-08-01T17:34:23.760Z,83.80
2022-08-01T17:37:46.089Z,83.90
2022-08-01T17:41:08.659Z,84.10
2022-08-01T17:44:30.865Z,84.40
2022-08-01T17:47:53.096Z,84.80
2022-08-01T17:51:20.729Z,85.10
2022-08-01T17:54:44.787Z,85.30
2022-08-01T17:58:08.357Z,85.40
2022-08-01T18:01:30.705Z,85.30
2022-08-01T18:04:53.257Z,85.60
2022-08-01T18:08:16.462Z,86.60
2022-08-01T18:11:40.880Z,86.10
2022-08-01T18:15:05.984Z,86.30
2022-08-01T18:18:33.306Z,86.10
2022-08-01T18:21:56.879Z,86.40
2022-08-01T18:25:20.034Z,86.60
2022-08-01T18:28:46.917Z,86.70
2022-08-01T18:32:09.218Z,86.00
2022-08-01T18:35:51.654Z,85.60
2022-08-01T18:39:13.775Z,85.30
2022-08-01T18:42:36.748Z,85.40
2022-08-01T18:45:58.982Z,85.60
2022-08-01T18:49:21.274Z,85.50
2022-08-01T18:52:43.685Z,86.00
2022-08-01T18:56:11.701Z,86.50
2022-08-01T18:59:33.917Z,86.50
2022-08-01T19:02:56.485Z,86.70
2022-08-01T19:06:18.792Z,86.90
2022-08-01T19:09:41.053Z,87.00
2022-08-01T19:13:03.757Z,86.90
2022-08-01T19:16:27.411Z,86.60
2022-08-01T19:19:54.696Z,87.00
2022-08-01T19:23:35.493Z,87.70
2022-08-01T19:27:08.351Z,88.20
2022-08-01T19:30:36.372Z,88.90
2022-08-01T19:33:58.714Z,89.00
2022-08-01T19:37:26.763Z,89.20
2022-08-01T19:40:49.520Z,88.80
2022-08-01T19:44:16.609Z,89.00
2022-08-01T19:47:56.178Z,89.50
2022-08-01T19:51:20.955Z,90.30
2022-08-01T19:54:45.500Z,90.80
2022-08-01T19:58:26.446Z,90.40
2022-08-01T20:01:52.308Z,89.70
2022-08-01T20:05:14.702Z,88.90
2022-08-01T20:08:37.877Z,88.90
2022-08-01T20:12:00.189Z,88.30
2022-08-01T20:15:22.708Z,88.80
2022-08-01T20:18:45.284Z,89.10
2022-08-01T20:22:07.897Z,88.30
2022-08-01T20:25:40.050Z,88.00
2022-08-01T20:29:03.912Z,87.90
2022-08-01T20:32:33.687Z,87.90
2022-08-01T20:35:56.130Z,87.90
2022-08-01T20:39:23.348Z,87.90
2022-08-01T20:42:45.854Z,87.90
2022-08-01T20:46:08.162Z,88.70
2022-08-01T20:49:31.453Z,88.40
2022-08-01T20:52:53.753Z,88.30
2022-08-01T20:56:16.039Z,88.10
2022-08-01T20:59:55.343Z,87.90
2022-08-01T21:03:23.559Z,88.00
2022-08-01T21:07:09.629Z,87.90
2022-08-01T21:10:34.974Z,88.10
2022-08-01T21:14:00.989Z,88.00
2022-08-01T21:17:37.540Z,88.40
2022-08-01T21:21:03.289Z,88.60
2022-08-01T21:24:32.588Z,89.10
2022-08-01T21:27:56.052Z,88.80
2022-08-01T21:31:28.420Z,88.80
2022-08-01T21:35:05.833Z,89.60
2022-08-01T21:38:40.112Z,90.00
2022-08-01T21:42:08.313Z,90.00
2022-08-01T21:45:31.625Z,89.80
2022-08-01T21:48:54.118Z,89.40
2022-08-01T21:52:22.615Z,89.70
2022-08-01T21:56:13.525Z,90.10
2022-08-01T21:59:46.908Z,90.10
2022-08-01T22:03:22.545Z,90.10
2022-08-01T22:06:48.869Z,90.00
2022-08-01T22:10:15.863Z,89.70
2022-08-01T22:13:38.289Z,89.80
2022-08-01T22:17:01.532Z,89.60
2022-08-01T22:20:26.000Z,89.70
2022-08-01T22:23:52.142Z,90.00
2022-08-01T22:27:23.589Z,90.40
2022-08-01T22:31:09.102Z,90.70
2022-08-01T22:34:31.283Z,90.60
2022-08-01T22:37:57.061Z,90.80
2022-08-01T22:41:25.574Z,90.90
2022-08-01T22:45:04.335Z,91.30
2022-08-01T22:48:44.259Z,91.00
2022-08-01T22:52:19.754Z,91.00
2022-08-01T22:55:58.488Z,91.00
2022-08-01T22:59:42.876Z,91.00
2022-08-01T23:03:27.063Z,91.30
2022-08-01T23:06:51.865Z,91.40
2022-08-01T23:10:14.130Z,91.20
2022-08-01T23:13:36.981Z,91.00
2022-08-01T23:17:03.189Z,90.70
2022-08-01T23:20:46.917Z,90.80
2022-08-01T23:24:09.690Z,90.30
2022-08-01T23:27:54.320Z,90.00
2022-08-01T23:31:20.217Z,89.90
2022-08-01T23:34:42.784Z,89.50
2022-08-01T23:38:05.239Z,89.50
2022-08-01T23:41:27.541Z,89.30
2022-08-01T23:44:50.015Z,89.10
2022-08-01T23:48:12.330Z,90.00
2022-08-01T23:51:34.526Z,90.10
2022-08-01T23:54:57.015Z,90.00
2022-08-01T23:58:19.356Z,90.00
